sensor_id;sensor_type;location;lat;lon;timestamp;P1;durP1;ratioP1;P2;durP2;ratioP2
33864;SDS011;20159;51.072;13.526;2022-12-01T00:01:03;64.43;;;41.08;;
33864;SDS011;20159;51.072;13.526;2022-12-01T00:03:30;75.97;;;41.63;;
33864;SDS011;20159;51.072;13.526;2022-12-01T00:05:56;66.57;;;40.47;;
33864;SDS011;20159;51.072;13.526;2022-12-01T00:08:23;65.53;;;41.90;;
33864;SDS011;20159;51.072;13.526;2022-12-01T00:10:49;69.07;;;42.78;;
33864;SDS011;20159;51.072;13.526;2022-12-01T00:13:14;63.08;;;41.92;;
33864;SDS011;20159;51.072;13.526;2022-12-01T00:15:40;66.97;;;43.22;;
33864;SDS011;20159;51.072;13.526;2022-12-01T00:18:05;68.35;;;42.33;;
33864;SDS011;20159;51.072;13.526;2022-12-01T00:20:31;69.20;;;44.38;;
33864;SDS011;20159;51.072;13.526;2022-12-01T00:22:58;67.03;;;42.15;;
33864;SDS011;20159;51.072;13.526;2022-12-01T00:25:24;63.00;;;41.47;;
33864;SDS011;20159;51.072;13.526;2022-12-01T00:27:50;66.20;;;42.97;;
33864;SDS011;20159;51.072;13.526;2022-12-01T00:30:17;63.42;;;42.08;;
33864;SDS011;20159;51.072;13.526;2022-12-01T00:32:45;68.72;;;43.33;;
33864;SDS011;20159;51.072;13.526;2022-12-01T00:35:11;78.22;;;43.22;;
33864;SDS011;20159;51.072;13.526;2022-12-01T00:37:37;94.55;;;44.45;;
33864;SDS011;20159;51.072;13.526;2022-12-01T00:40:02;70.05;;;41.95;;
33864;SDS011;20159;51.072;13.526;2022-12-01T00:42:30;94.90;;;43.15;;
33864;SDS011;20159;51.072;13.526;2022-12-01T00:44:55;133.40;;;42.38;;
33864;SDS011;20159;51.072;13.526;2022-12-01T00:47:21;70.75;;;40.40;;
33864;SDS011;20159;51.072;13.526;2022-12-01T00:49:47;71.13;;;41.47;;
33864;SDS011;20159;51.072;13.526;2022-12-01T00:52:12;74.65;;;39.90;;
33864;SDS011;20159;51.072;13.526;2022-12-01T00:54:39;95.43;;;40.42;;
33864;SDS011;20159;51.072;13.526;2022-12-01T00:57:04;81.95;;;38.75;;
33864;SDS011;20159;51.072;13.526;2022-12-01T00:59:31;179.02;;;44.40;;
33864;SDS011;20159;51.072;13.526;2022-12-01T01:01:56;87.97;;;40.45;;
33864;SDS011;20159;51.072;13.526;2022-12-01T01:04:22;82.65;;;40.58;;
33864;SDS011;20159;51.072;13.526;2022-12-01T01:06:47;65.22;;;39.60;;
33864;SDS011;20159;51.072;13.526;2022-12-01T01:09:13;77.75;;;42.60;;
33864;SDS011;20159;51.072;13.526;2022-12-01T01:11:39;73.03;;;41.80;;
33864;SDS011;20159;51.072;13.526;2022-12-01T01:14:05;115.80;;;43.90;;
33864;SDS011;20159;51.072;13.526;2022-12-01T01:16:31;90.53;;;41.47;;
33864;SDS011;20159;51.072;13.526;2022-12-01T01:18:57;78.30;;;42.63;;
33864;SDS011;20159;51.072;13.526;2022-12-01T01:21:23;90.25;;;41.67;;
33864;SDS011;20159;51.072;13.526;2022-12-01T01:23:49;60.25;;;39.15;;
33864;SDS011;20159;51.072;13.526;2022-12-01T01:26:18;115.78;;;39.65;;
33864;SDS011;20159;51.072;13.526;2022-12-01T01:28:45;71.72;;;38.35;;
33864;SDS011;20159;51.072;13.526;2022-12-01T01:31:13;87.85;;;41.92;;
33864;SDS011;20159;51.072;13.526;2022-12-01T01:33:41;64.60;;;37.88;;
33864;SDS011;20159;51.072;13.526;2022-12-01T01:36:07;62.75;;;39.85;;
33864;SDS011;20159;51.072;13.526;2022-12-01T01:38:34;76.82;;;39.22;;
33864;SDS011;20159;51.072;13.526;2022-12-01T01:41:00;173.50;;;44.42;;
33864;SDS011;20159;51.072;13.526;2022-12-01T01:46:22;112.53;;;40.55;;
33864;SDS011;20159;51.072;13.526;2022-12-01T01:51:25;195.25;;;43.03;;
33864;SDS011;20159;51.072;13.526;2022-12-01T01:53:55;78.15;;;38.53;;
33864;SDS011;20159;51.072;13.526;2022-12-01T01:56:24;90.80;;;40.55;;
33864;SDS011;20159;51.072;13.526;2022-12-01T01:58:50;79.75;;;36.97;;
33864;SDS011;20159;51.072;13.526;2022-12-01T02:01:17;113.13;;;38.90;;
33864;SDS011;20159;51.072;13.526;2022-12-01T02:03:42;93.30;;;38.50;;
33864;SDS011;20159;51.072;13.526;2022-12-01T02:06:09;150.52;;;39.10;;
33864;SDS011;20159;51.072;13.526;2022-12-01T02:08:35;148.15;;;40.45;;
33864;SDS011;20159;51.072;13.526;2022-12-01T02:30:11;171.45;;;43.80;;
33864;SDS011;20159;51.072;13.526;2022-12-01T02:35:08;85.13;;;38.25;;
33864;SDS011;20159;51.072;13.526;2022-12-01T02:37:37;168.68;;;42.25;;
33864;SDS011;20159;51.072;13.526;2022-12-01T02:40:23;154.52;;;41.30;;
33864;SDS011;20159;51.072;13.526;2022-12-01T02:43:00;91.68;;;37.33;;
33864;SDS011;20159;51.072;13.526;2022-12-01T02:48:04;156.25;;;39.28;;
33864;SDS011;20159;51.072;13.526;2022-12-01T02:50:34;163.32;;;39.38;;
33864;SDS011;20159;51.072;13.526;2022-12-01T02:53:01;109.53;;;35.97;;
33864;SDS011;20159;51.072;13.526;2022-12-01T02:55:29;102.25;;;37.30;;
33864;SDS011;20159;51.072;13.526;2022-12-01T02:57:54;251.80;;;43.65;;
33864;SDS011;20159;51.072;13.526;2022-12-01T03:00:20;223.57;;;42.10;;
33864;SDS011;20159;51.072;13.526;2022-12-01T03:03:01;158.05;;;38.83;;
33864;SDS011;20159;51.072;13.526;2022-12-01T03:05:52;264.75;;;42.75;;
33864;SDS011;20159;51.072;13.526;2022-12-01T03:08:30;191.82;;;40.15;;
33864;SDS011;20159;51.072;13.526;2022-12-01T03:11:09;192.93;;;37.45;;
33864;SDS011;20159;51.072;13.526;2022-12-01T03:13:53;128.93;;;36.38;;
33864;SDS011;20159;51.072;13.526;2022-12-01T03:16:26;199.77;;;39.92;;
33864;SDS011;20159;51.072;13.526;2022-12-01T03:19:08;90.82;;;34.55;;
33864;SDS011;20159;51.072;13.526;2022-12-01T03:22:00;63.10;;;34.42;;
33864;SDS011;20159;51.072;13.526;2022-12-01T03:24:39;177.38;;;40.83;;
33864;SDS011;20159;51.072;13.526;2022-12-01T03:27:08;72.40;;;35.05;;
33864;SDS011;20159;51.072;13.526;2022-12-01T03:29:38;342.08;;;49.47;;
33864;SDS011;20159;51.072;13.526;2022-12-01T03:32:10;199.70;;;41.90;;
33864;SDS011;20159;51.072;13.526;2022-12-01T03:34:44;238.52;;;41.00;;
33864;SDS011;20159;51.072;13.526;2022-12-01T03:37:35;196.65;;;39.78;;
33864;SDS011;20159;51.072;13.526;2022-12-01T03:40:10;149.88;;;35.92;;
33864;SDS011;20159;51.072;13.526;2022-12-01T03:42:40;158.45;;;39.13;;
33864;SDS011;20159;51.072;13.526;2022-12-01T03:45:14;181.97;;;40.73;;
33864;SDS011;20159;51.072;13.526;2022-12-01T03:47:47;206.27;;;40.67;;
33864;SDS011;20159;51.072;13.526;2022-12-01T03:50:12;130.13;;;35.92;;
33864;SDS011;20159;51.072;13.526;2022-12-01T03:55:31;71.07;;;33.20;;
33864;SDS011;20159;51.072;13.526;2022-12-01T03:58:09;81.85;;;35.53;;
33864;SDS011;20159;51.072;13.526;2022-12-01T04:00:38;173.18;;;39.63;;
33864;SDS011;20159;51.072;13.526;2022-12-01T04:03:04;86.97;;;36.47;;
33864;SDS011;20159;51.072;13.526;2022-12-01T04:05:31;139.98;;;39.38;;
33864;SDS011;20159;51.072;13.526;2022-12-01T04:07:58;63.60;;;36.10;;
33864;SDS011;20159;51.072;13.526;2022-12-01T04:10:24;68.15;;;35.35;;
33864;SDS011;20159;51.072;13.526;2022-12-01T04:12:50;97.50;;;38.50;;
33864;SDS011;20159;51.072;13.526;2022-12-01T04:15:22;89.40;;;35.88;;
33864;SDS011;20159;51.072;13.526;2022-12-01T04:17:48;216.05;;;42.55;;
33864;SDS011;20159;51.072;13.526;2022-12-01T04:20:14;168.48;;;40.95;;
33864;SDS011;20159;51.072;13.526;2022-12-01T04:22:40;237.00;;;41.08;;
33864;SDS011;20159;51.072;13.526;2022-12-01T04:25:06;83.00;;;36.78;;
33864;SDS011;20159;51.072;13.526;2022-12-01T04:27:32;211.10;;;43.60;;
33864;SDS011;20159;51.072;13.526;2022-12-01T04:29:58;151.45;;;40.80;;
33864;SDS011;20159;51.072;13.526;2022-12-01T04:32:23;120.43;;;39.15;;
33864;SDS011;20159;51.072;13.526;2022-12-01T04:34:49;303.20;;;47.00;;
33864;SDS011;20159;51.072;13.526;2022-12-01T04:37:15;143.82;;;40.55;;
33864;SDS011;20159;51.072;13.526;2022-12-01T04:39:40;166.77;;;40.97;;
33864;SDS011;20159;51.072;13.526;2022-12-01T04:42:06;114.90;;;39.95;;
33864;SDS011;20159;51.072;13.526;2022-12-01T04:44:32;148.88;;;40.47;;
33864;SDS011;20159;51.072;13.526;2022-12-01T04:46:58;231.52;;;43.05;;
33864;SDS011;20159;51.072;13.526;2022-12-01T04:49:23;192.15;;;43.47;;
33864;SDS011;20159;51.072;13.526;2022-12-01T04:51:49;94.38;;;38.10;;
33864;SDS011;20159;51.072;13.526;2022-12-01T04:54:15;80.97;;;37.30;;
33864;SDS011;20159;51.072;13.526;2022-12-01T04:56:41;98.13;;;39.40;;
33864;SDS011;20159;51.072;13.526;2022-12-01T04:59:07;91.25;;;39.85;;
33864;SDS011;20159;51.072;13.526;2022-12-01T05:01:33;91.07;;;39.70;;
33864;SDS011;20159;51.072;13.526;2022-12-01T05:03:58;131.68;;;39.15;;
33864;SDS011;20159;51.072;13.526;2022-12-01T05:06:25;136.45;;;41.33;;
33864;SDS011;20159;51.072;13.526;2022-12-01T05:08:56;140.20;;;41.05;;
33864;SDS011;20159;51.072;13.526;2022-12-01T05:11:26;95.97;;;40.78;;
33864;SDS011;20159;51.072;13.526;2022-12-01T05:13:52;97.28;;;40.15;;
33864;SDS011;20159;51.072;13.526;2022-12-01T05:16:19;121.90;;;42.00;;
33864;SDS011;20159;51.072;13.526;2022-12-01T05:18:47;119.50;;;40.78;;
33864;SDS011;20159;51.072;13.526;2022-12-01T05:21:14;124.03;;;40.10;;
33864;SDS011;20159;51.072;13.526;2022-12-01T05:23:40;93.13;;;41.70;;
33864;SDS011;20159;51.072;13.526;2022-12-01T05:26:06;119.80;;;41.80;;
33864;SDS011;20159;51.072;13.526;2022-12-01T05:28:33;93.90;;;40.15;;
33864;SDS011;20159;51.072;13.526;2022-12-01T05:30:59;82.45;;;40.45;;
33864;SDS011;20159;51.072;13.526;2022-12-01T05:33:25;118.18;;;44.03;;
33864;SDS011;20159;51.072;13.526;2022-12-01T05:35:52;103.53;;;41.30;;
33864;SDS011;20159;51.072;13.526;2022-12-01T05:38:18;80.93;;;40.35;;
33864;SDS011;20159;51.072;13.526;2022-12-01T05:40:50;91.60;;;40.45;;
33864;SDS011;20159;51.072;13.526;2022-12-01T05:43:17;96.70;;;42.28;;
33864;SDS011;20159;51.072;13.526;2022-12-01T05:45:44;100.50;;;43.65;;
33864;SDS011;20159;51.072;13.526;2022-12-01T05:48:09;130.93;;;43.85;;
33864;SDS011;20159;51.072;13.526;2022-12-01T05:50:36;84.80;;;40.60;;
33864;SDS011;20159;51.072;13.526;2022-12-01T05:53:03;101.38;;;43.17;;
33864;SDS011;20159;51.072;13.526;2022-12-01T05:55:29;87.38;;;41.38;;
33864;SDS011;20159;51.072;13.526;2022-12-01T05:57:57;111.80;;;45.53;;
33864;SDS011;20159;51.072;13.526;2022-12-01T06:00:23;122.25;;;44.67;;
33864;SDS011;20159;51.072;13.526;2022-12-01T06:02:48;88.28;;;42.85;;
33864;SDS011;20159;51.072;13.526;2022-12-01T06:05:14;85.47;;;41.58;;
33864;SDS011;20159;51.072;13.526;2022-12-01T06:07:39;96.20;;;44.55;;
33864;SDS011;20159;51.072;13.526;2022-12-01T06:10:05;82.20;;;41.53;;
33864;SDS011;20159;51.072;13.526;2022-12-01T06:12:33;82.05;;;42.22;;
33864;SDS011;20159;51.072;13.526;2022-12-01T06:14:58;94.68;;;43.08;;
33864;SDS011;20159;51.072;13.526;2022-12-01T06:17:24;100.80;;;44.47;;
33864;SDS011;20159;51.072;13.526;2022-12-01T06:19:49;90.78;;;43.00;;
33864;SDS011;20159;51.072;13.526;2022-12-01T06:22:15;94.15;;;43.97;;
33864;SDS011;20159;51.072;13.526;2022-12-01T06:24:40;83.15;;;42.25;;
33864;SDS011;20159;51.072;13.526;2022-12-01T06:27:06;84.22;;;42.13;;
33864;SDS011;20159;51.072;13.526;2022-12-01T06:29:31;88.38;;;43.00;;
33864;SDS011;20159;51.072;13.526;2022-12-01T06:31:57;81.70;;;40.85;;
33864;SDS011;20159;51.072;13.526;2022-12-01T06:34:22;81.45;;;41.20;;
33864;SDS011;20159;51.072;13.526;2022-12-01T06:36:48;81.82;;;40.65;;
33864;SDS011;20159;51.072;13.526;2022-12-01T06:39:14;90.85;;;42.03;;
33864;SDS011;20159;51.072;13.526;2022-12-01T06:41:40;87.28;;;42.80;;
33864;SDS011;20159;51.072;13.526;2022-12-01T06:44:06;90.05;;;43.53;;
33864;SDS011;20159;51.072;13.526;2022-12-01T06:46:31;102.13;;;43.40;;
33864;SDS011;20159;51.072;13.526;2022-12-01T06:48:57;107.50;;;45.85;;
33864;SDS011;20159;51.072;13.526;2022-12-01T06:51:23;155.40;;;46.10;;
33864;SDS011;20159;51.072;13.526;2022-12-01T06:53:52;149.77;;;47.55;;
33864;SDS011;20159;51.072;13.526;2022-12-01T06:56:20;113.57;;;45.88;;
33864;SDS011;20159;51.072;13.526;2022-12-01T06:58:49;130.43;;;47.78;;
33864;SDS011;20159;51.072;13.526;2022-12-01T07:01:15;146.00;;;48.95;;
33864;SDS011;20159;51.072;13.526;2022-12-01T07:03:41;113.25;;;47.30;;
33864;SDS011;20159;51.072;13.526;2022-12-01T07:06:11;129.30;;;48.08;;
33864;SDS011;20159;51.072;13.526;2022-12-01T07:08:36;109.03;;;47.70;;
33864;SDS011;20159;51.072;13.526;2022-12-01T07:11:03;152.80;;;49.08;;
33864;SDS011;20159;51.072;13.526;2022-12-01T07:13:31;136.88;;;50.90;;
33864;SDS011;20159;51.072;13.526;2022-12-01T07:15:57;170.52;;;51.05;;
33864;SDS011;20159;51.072;13.526;2022-12-01T07:18:23;179.52;;;52.08;;
33864;SDS011;20159;51.072;13.526;2022-12-01T07:20:49;107.00;;;48.38;;
33864;SDS011;20159;51.072;13.526;2022-12-01T07:23:16;122.80;;;48.88;;
33864;SDS011;20159;51.072;13.526;2022-12-01T07:25:41;131.80;;;50.38;;
33864;SDS011;20159;51.072;13.526;2022-12-01T07:28:07;136.88;;;48.08;;
33864;SDS011;20159;51.072;13.526;2022-12-01T07:30:33;114.70;;;49.20;;
33864;SDS011;20159;51.072;13.526;2022-12-01T07:35:28;97.32;;;46.55;;
33864;SDS011;20159;51.072;13.526;2022-12-01T07:37:54;92.82;;;45.75;;
33864;SDS011;20159;51.072;13.526;2022-12-01T07:40:20;90.15;;;44.15;;
33864;SDS011;20159;51.072;13.526;2022-12-01T07:42:46;96.63;;;45.17;;
33864;SDS011;20159;51.072;13.526;2022-12-01T07:45:12;88.85;;;44.47;;
33864;SDS011;20159;51.072;13.526;2022-12-01T07:47:37;91.40;;;43.58;;
33864;SDS011;20159;51.072;13.526;2022-12-01T07:50:03;87.55;;;44.42;;
33864;SDS011;20159;51.072;13.526;2022-12-01T07:52:29;91.55;;;44.72;;
33864;SDS011;20159;51.072;13.526;2022-12-01T07:54:55;100.47;;;44.70;;
33864;SDS011;20159;51.072;13.526;2022-12-01T07:57:20;96.28;;;45.70;;
33864;SDS011;20159;51.072;13.526;2022-12-01T07:59:47;98.57;;;47.47;;
33864;SDS011;20159;51.072;13.526;2022-12-01T08:02:13;103.30;;;47.65;;
33864;SDS011;20159;51.072;13.526;2022-12-01T08:04:38;98.65;;;47.45;;
33864;SDS011;20159;51.072;13.526;2022-12-01T08:07:04;97.95;;;47.33;;
33864;SDS011;20159;51.072;13.526;2022-12-01T08:09:30;93.50;;;47.53;;
33864;SDS011;20159;51.072;13.526;2022-12-01T08:11:55;90.80;;;46.03;;
33864;SDS011;20159;51.072;13.526;2022-12-01T08:14:21;97.00;;;47.47;;
33864;SDS011;20159;51.072;13.526;2022-12-01T08:16:47;97.43;;;47.58;;
33864;SDS011;20159;51.072;13.526;2022-12-01T08:19:13;97.30;;;46.60;;
33864;SDS011;20159;51.072;13.526;2022-12-01T08:21:38;91.88;;;45.58;;
33864;SDS011;20159;51.072;13.526;2022-12-01T08:24:04;87.07;;;44.30;;
33864;SDS011;20159;51.072;13.526;2022-12-01T08:26:30;92.10;;;45.15;;
33864;SDS011;20159;51.072;13.526;2022-12-01T08:28:56;90.72;;;45.88;;
33864;SDS011;20159;51.072;13.526;2022-12-01T08:31:26;102.45;;;48.95;;
33864;SDS011;20159;51.072;13.526;2022-12-01T08:33:54;98.82;;;45.97;;
33864;SDS011;20159;51.072;13.526;2022-12-01T08:36:20;94.07;;;46.15;;
33864;SDS011;20159;51.072;13.526;2022-12-01T08:38:47;94.63;;;46.67;;
33864;SDS011;20159;51.072;13.526;2022-12-01T08:41:15;98.20;;;47.65;;
33864;SDS011;20159;51.072;13.526;2022-12-01T08:43:41;101.78;;;50.97;;
33864;SDS011;20159;51.072;13.526;2022-12-01T08:46:08;100.97;;;48.50;;
33864;SDS011;20159;51.072;13.526;2022-12-01T08:48:36;96.60;;;47.55;;
33864;SDS011;20159;51.072;13.526;2022-12-01T08:51:03;96.00;;;47.85;;
33864;SDS011;20159;51.072;13.526;2022-12-01T08:53:34;105.68;;;49.60;;
33864;SDS011;20159;51.072;13.526;2022-12-01T08:56:02;105.90;;;50.60;;
33864;SDS011;20159;51.072;13.526;2022-12-01T08:58:30;99.40;;;49.60;;
33864;SDS011;20159;51.072;13.526;2022-12-01T09:01:29;98.60;;;50.45;;
33864;SDS011;20159;51.072;13.526;2022-12-01T09:03:47;94.28;;;48.90;;
33864;SDS011;20159;51.072;13.526;2022-12-01T09:06:14;91.88;;;47.13;;
33864;SDS011;20159;51.072;13.526;2022-12-01T09:08:41;89.80;;;46.03;;
33864;SDS011;20159;51.072;13.526;2022-12-01T09:11:12;92.60;;;47.25;;
33864;SDS011;20159;51.072;13.526;2022-12-01T09:13:39;100.70;;;49.80;;
33864;SDS011;20159;51.072;13.526;2022-12-01T09:16:07;93.95;;;49.58;;
33864;SDS011;20159;51.072;13.526;2022-12-01T09:18:35;106.30;;;52.72;;
33864;SDS011;20159;51.072;13.526;2022-12-01T09:21:08;109.40;;;55.75;;
33864;SDS011;20159;51.072;13.526;2022-12-01T09:23:35;106.82;;;55.25;;
33864;SDS011;20159;51.072;13.526;2022-12-01T09:26:00;107.03;;;55.40;;
33864;SDS011;20159;51.072;13.526;2022-12-01T09:28:26;118.18;;;59.42;;
33864;SDS011;20159;51.072;13.526;2022-12-01T09:30:51;107.95;;;57.88;;
33864;SDS011;20159;51.072;13.526;2022-12-01T09:33:17;103.85;;;54.47;;
33864;SDS011;20159;51.072;13.526;2022-12-01T09:35:42;106.32;;;56.70;;
33864;SDS011;20159;51.072;13.526;2022-12-01T09:38:08;107.20;;;55.38;;
33864;SDS011;20159;51.072;13.526;2022-12-01T09:40:34;104.05;;;53.78;;
33864;SDS011;20159;51.072;13.526;2022-12-01T09:43:03;108.00;;;54.90;;
33864;SDS011;20159;51.072;13.526;2022-12-01T09:45:36;106.18;;;54.70;;
33864;SDS011;20159;51.072;13.526;2022-12-01T09:48:06;104.70;;;53.90;;
33864;SDS011;20159;51.072;13.526;2022-12-01T09:50:49;103.47;;;52.92;;
33864;SDS011;20159;51.072;13.526;2022-12-01T09:53:16;104.88;;;55.47;;
33864;SDS011;20159;51.072;13.526;2022-12-01T09:55:45;103.07;;;54.20;;
33864;SDS011;20159;51.072;13.526;2022-12-01T09:58:16;104.45;;;52.78;;
33864;SDS011;20159;51.072;13.526;2022-12-01T10:00:53;104.72;;;54.25;;
33864;SDS011;20159;51.072;13.526;2022-12-01T10:03:36;100.72;;;52.80;;
33864;SDS011;20159;51.072;13.526;2022-12-01T10:06:11;95.50;;;50.17;;
33864;SDS011;20159;51.072;13.526;2022-12-01T10:09:02;94.20;;;52.47;;
33864;SDS011;20159;51.072;13.526;2022-12-01T10:11:46;92.82;;;50.95;;
33864;SDS011;20159;51.072;13.526;2022-12-01T10:14:15;94.18;;;50.30;;
33864;SDS011;20159;51.072;13.526;2022-12-01T10:16:54;92.57;;;51.60;;
33864;SDS011;20159;51.072;13.526;2022-12-01T10:30:15;95.93;;;52.47;;
33864;SDS011;20159;51.072;13.526;2022-12-01T10:35:26;103.22;;;56.25;;
33864;SDS011;20159;51.072;13.526;2022-12-01T10:37:55;93.00;;;50.83;;
33864;SDS011;20159;51.072;13.526;2022-12-01T10:40:22;99.70;;;54.63;;
33864;SDS011;20159;51.072;13.526;2022-12-01T10:42:49;101.25;;;55.50;;
33864;SDS011;20159;51.072;13.526;2022-12-01T10:45:19;98.68;;;53.75;;
33864;SDS011;20159;51.072;13.526;2022-12-01T10:50:51;105.20;;;55.72;;
33864;SDS011;20159;51.072;13.526;2022-12-01T10:55:49;104.97;;;57.13;;
33864;SDS011;20159;51.072;13.526;2022-12-01T10:58:22;104.20;;;56.65;;
33864;SDS011;20159;51.072;13.526;2022-12-01T11:00:55;105.60;;;57.03;;
33864;SDS011;20159;51.072;13.526;2022-12-01T11:03:22;103.97;;;56.30;;
33864;SDS011;20159;51.072;13.526;2022-12-01T11:05:52;101.95;;;55.92;;
33864;SDS011;20159;51.072;13.526;2022-12-01T11:08:22;100.57;;;54.70;;
33864;SDS011;20159;51.072;13.526;2022-12-01T11:11:00;101.85;;;56.35;;
33864;SDS011;20159;51.072;13.526;2022-12-01T11:13:27;99.25;;;55.40;;
33864;SDS011;20159;51.072;13.526;2022-12-01T11:15:55;104.22;;;54.92;;
33864;SDS011;20159;51.072;13.526;2022-12-01T11:21:06;92.72;;;52.63;;
33864;SDS011;20159;51.072;13.526;2022-12-01T11:23:34;93.95;;;53.42;;
33864;SDS011;20159;51.072;13.526;2022-12-01T11:26:05;95.75;;;54.35;;
33864;SDS011;20159;51.072;13.526;2022-12-01T11:28:37;99.18;;;56.05;;
33864;SDS011;20159;51.072;13.526;2022-12-01T11:31:08;93.63;;;53.33;;
33864;SDS011;20159;51.072;13.526;2022-12-01T11:33:46;99.20;;;54.83;;
33864;SDS011;20159;51.072;13.526;2022-12-01T11:36:30;95.20;;;54.20;;
33864;SDS011;20159;51.072;13.526;2022-12-01T11:39:00;110.45;;;60.15;;
33864;SDS011;20159;51.072;13.526;2022-12-01T11:41:44;106.43;;;58.90;;
33864;SDS011;20159;51.072;13.526;2022-12-01T11:44:15;99.63;;;55.85;;
33864;SDS011;20159;51.072;13.526;2022-12-01T11:46:43;97.60;;;53.55;;
33864;SDS011;20159;51.072;13.526;2022-12-01T11:49:22;93.90;;;52.70;;
33864;SDS011;20159;51.072;13.526;2022-12-01T11:51:49;92.43;;;52.45;;
33864;SDS011;20159;51.072;13.526;2022-12-01T11:54:17;88.22;;;52.40;;
33864;SDS011;20159;51.072;13.526;2022-12-01T11:56:43;93.70;;;53.33;;
33864;SDS011;20159;51.072;13.526;2022-12-01T11:59:11;89.47;;;52.58;;
33864;SDS011;20159;51.072;13.526;2022-12-01T12:15:49;87.88;;;53.10;;
33864;SDS011;20159;51.072;13.526;2022-12-01T12:26:32;92.07;;;55.63;;
33864;SDS011;20159;51.072;13.526;2022-12-01T12:31:48;85.03;;;50.95;;
33864;SDS011;20159;51.072;13.526;2022-12-01T12:37:05;83.85;;;50.35;;
33864;SDS011;20159;51.072;13.526;2022-12-01T12:50:46;78.53;;;46.08;;
33864;SDS011;20159;51.072;13.526;2022-12-01T12:53:15;76.85;;;46.00;;
33864;SDS011;20159;51.072;13.526;2022-12-01T12:55:48;79.15;;;47.10;;
33864;SDS011;20159;51.072;13.526;2022-12-01T12:58:19;72.30;;;46.28;;
33864;SDS011;20159;51.072;13.526;2022-12-01T13:00:54;74.30;;;46.08;;
33864;SDS011;20159;51.072;13.526;2022-12-01T13:07:01;72.32;;;45.88;;
33864;SDS011;20159;51.072;13.526;2022-12-01T13:09:34;75.40;;;45.08;;
33864;SDS011;20159;51.072;13.526;2022-12-01T13:12:15;78.22;;;45.80;;
33864;SDS011;20159;51.072;13.526;2022-12-01T13:15:18;75.05;;;47.00;;
33864;SDS011;20159;51.072;13.526;2022-12-01T13:17:47;72.03;;;44.72;;
33864;SDS011;20159;51.072;13.526;2022-12-01T13:20:20;72.38;;;43.88;;
33864;SDS011;20159;51.072;13.526;2022-12-01T13:22:49;70.25;;;45.25;;
33864;SDS011;20159;51.072;13.526;2022-12-01T13:25:21;76.30;;;45.67;;
33864;SDS011;20159;51.072;13.526;2022-12-01T13:27:50;70.72;;;45.63;;
33864;SDS011;20159;51.072;13.526;2022-12-01T13:30:21;75.10;;;46.28;;
33864;SDS011;20159;51.072;13.526;2022-12-01T13:32:49;74.70;;;46.08;;
33864;SDS011;20159;51.072;13.526;2022-12-01T13:35:37;73.15;;;45.47;;
33864;SDS011;20159;51.072;13.526;2022-12-01T13:38:37;77.07;;;47.63;;
33864;SDS011;20159;51.072;13.526;2022-12-01T13:43:51;66.95;;;42.03;;
33864;SDS011;20159;51.072;13.526;2022-12-01T13:46:24;68.63;;;42.30;;
33864;SDS011;20159;51.072;13.526;2022-12-01T13:48:54;67.75;;;42.35;;
33864;SDS011;20159;51.072;13.526;2022-12-01T13:51:22;73.13;;;45.42;;
33864;SDS011;20159;51.072;13.526;2022-12-01T13:54:03;71.15;;;43.38;;
33864;SDS011;20159;51.072;13.526;2022-12-01T13:56:57;65.68;;;43.13;;
33864;SDS011;20159;51.072;13.526;2022-12-01T13:59:40;71.47;;;43.75;;
33864;SDS011;20159;51.072;13.526;2022-12-01T14:02:13;64.72;;;42.90;;
33864;SDS011;20159;51.072;13.526;2022-12-01T14:04:42;71.72;;;45.38;;
33864;SDS011;20159;51.072;13.526;2022-12-01T14:07:11;68.78;;;43.50;;
33864;SDS011;20159;51.072;13.526;2022-12-01T14:09:40;75.93;;;45.55;;
33864;SDS011;20159;51.072;13.526;2022-12-01T14:12:15;74.82;;;46.88;;
33864;SDS011;20159;51.072;13.526;2022-12-01T14:15:00;68.45;;;43.38;;
33864;SDS011;20159;51.072;13.526;2022-12-01T14:17:36;76.05;;;47.25;;
33864;SDS011;20159;51.072;13.526;2022-12-01T14:20:06;83.03;;;49.05;;
33864;SDS011;20159;51.072;13.526;2022-12-01T14:22:44;73.78;;;45.58;;
33864;SDS011;20159;51.072;13.526;2022-12-01T14:27:44;77.70;;;47.83;;
33864;SDS011;20159;51.072;13.526;2022-12-01T14:39:10;79.53;;;47.95;;
33864;SDS011;20159;51.072;13.526;2022-12-01T14:41:40;74.72;;;46.88;;
33864;SDS011;20159;51.072;13.526;2022-12-01T14:50:22;73.28;;;45.05;;
33864;SDS011;20159;51.072;13.526;2022-12-01T14:53:36;78.32;;;48.88;;
33864;SDS011;20159;51.072;13.526;2022-12-01T14:55:51;80.43;;;47.17;;
33864;SDS011;20159;51.072;13.526;2022-12-01T14:58:23;82.00;;;51.60;;
33864;SDS011;20159;51.072;13.526;2022-12-01T15:03:21;80.75;;;49.03;;
33864;SDS011;20159;51.072;13.526;2022-12-01T15:05:48;81.70;;;50.72;;
33864;SDS011;20159;51.072;13.526;2022-12-01T15:08:17;82.35;;;49.78;;
33864;SDS011;20159;51.072;13.526;2022-12-01T15:10:55;85.18;;;51.42;;
33864;SDS011;20159;51.072;13.526;2022-12-01T15:13:27;85.95;;;49.60;;
33864;SDS011;20159;51.072;13.526;2022-12-01T15:16:14;82.90;;;51.65;;
33864;SDS011;20159;51.072;13.526;2022-12-01T15:18:45;84.38;;;50.83;;
33864;SDS011;20159;51.072;13.526;2022-12-01T15:21:32;86.95;;;52.22;;
33864;SDS011;20159;51.072;13.526;2022-12-01T15:26:23;83.40;;;51.22;;
33864;SDS011;20159;51.072;13.526;2022-12-01T15:31:39;81.45;;;51.28;;
33864;SDS011;20159;51.072;13.526;2022-12-01T15:34:08;77.70;;;49.92;;
33864;SDS011;20159;51.072;13.526;2022-12-01T15:36:39;80.13;;;48.53;;
33864;SDS011;20159;51.072;13.526;2022-12-01T15:39:05;79.03;;;49.15;;
33864;SDS011;20159;51.072;13.526;2022-12-01T15:41:39;79.90;;;50.22;;
33864;SDS011;20159;51.072;13.526;2022-12-01T15:44:13;81.25;;;50.30;;
33864;SDS011;20159;51.072;13.526;2022-12-01T15:46:52;76.38;;;48.53;;
33864;SDS011;20159;51.072;13.526;2022-12-01T15:49:28;78.78;;;48.58;;
33864;SDS011;20159;51.072;13.526;2022-12-01T15:52:07;78.90;;;48.90;;
33864;SDS011;20159;51.072;13.526;2022-12-01T15:54:35;78.45;;;48.67;;
33864;SDS011;20159;51.072;13.526;2022-12-01T15:57:02;80.97;;;49.17;;
33864;SDS011;20159;51.072;13.526;2022-12-01T16:01:57;84.32;;;50.58;;
33864;SDS011;20159;51.072;13.526;2022-12-01T16:04:24;88.55;;;51.22;;
33864;SDS011;20159;51.072;13.526;2022-12-01T16:06:54;76.90;;;48.05;;
33864;SDS011;20159;51.072;13.526;2022-12-01T16:17:49;75.25;;;48.95;;
33864;SDS011;20159;51.072;13.526;2022-12-01T16:20:32;78.25;;;48.10;;
33864;SDS011;20159;51.072;13.526;2022-12-01T16:23:03;77.13;;;48.70;;
33864;SDS011;20159;51.072;13.526;2022-12-01T16:25:38;76.90;;;49.55;;
33864;SDS011;20159;51.072;13.526;2022-12-01T16:28:14;78.55;;;48.90;;
33864;SDS011;20159;51.072;13.526;2022-12-01T16:30:45;85.72;;;50.88;;
33864;SDS011;20159;51.072;13.526;2022-12-01T16:33:15;81.63;;;50.45;;
33864;SDS011;20159;51.072;13.526;2022-12-01T16:35:42;86.05;;;53.13;;